sensor_id;sensor_type;location;lat;lon;timestamp;pressure;altitude;pressure_sealevel;temperature;humidity
23867;BME280;12114;53.404;-1.502;2023-12-28T00:00:13;98482.00;;;10.26;100.00
23867;BME280;12114;53.404;-1.502;2023-12-28T00:02:58;98481.56;;;10.31;100.00
23867;BME280;12114;53.404;-1.502;2023-12-28T00:05:42;98484.78;;;10.23;100.00
23867;BME280;12114;53.404;-1.502;2023-12-28T00:08:28;98487.81;;;10.46;100.00
23867;BME280;12114;53.404;-1.502;2023-12-28T00:11:13;98486.72;;;10.36;100.00
23867;BME280;12114;53.404;-1.502;2023-12-28T00:13:56;98506.06;;;10.47;100.00
23867;BME280;12114;53.404;-1.502;2023-12-28T00:16:40;98490.22;;;10.44;100.00
23867;BME280;12114;53.404;-1.502;2023-12-28T00:19:24;98501.31;;;10.48;100.00
23867;BME280;12114;53.404;-1.502;2023-12-28T00:22:08;98496.56;;;10.45;100.00
23867;BME280;12114;53.404;-1.502;2023-12-28T00:24:52;98499.78;;;10.39;100.00
23867;BME280;12114;53.404;-1.502;2023-12-28T00:27:36;98492.19;;;10.47;100.00
23867;BME280;12114;53.404;-1.502;2023-12-28T00:30:21;98509.28;;;10.46;100.00
23867;BME280;12114;53.404;-1.502;2023-12-28T00:33:06;98533.47;;;10.38;100.00
23867;BME280;12114;53.404;-1.502;2023-12-28T00:35:49;98522.00;;;10.36;100.00
23867;BME280;12114;53.404;-1.502;2023-12-28T00:38:33;98508.94;;;10.29;100.00
23867;BME280;12114;53.404;-1.502;2023-12-28T00:41:17;98508.19;;;10.11;100.00
23867;BME280;12114;53.404;-1.502;2023-12-28T00:44:01;98520.88;;;10.19;100.00
23867;BME280;12114;53.404;-1.502;2023-12-28T00:46:46;98527.13;;;10.41;100.00
23867;BME280;12114;53.404;-1.502;2023-12-28T00:49:30;98524.34;;;10.37;100.00
23867;BME280;12114;53.404;-1.502;2023-12-28T00:52:14;98526.75;;;10.39;100.00
23867;BME280;12114;53.404;-1.502;2023-12-28T00:54:58;98521.19;;;10.43;100.00
23867;BME280;12114;53.404;-1.502;2023-12-28T00:57:42;98512.81;;;10.46;100.00
23867;BME280;12114;53.404;-1.502;2023-12-28T01:00:26;98517.56;;;10.49;100.00
23867;BME280;12114;53.404;-1.502;2023-12-28T01:03:10;98503.72;;;10.46;100.00
23867;BME280;12114;53.404;-1.502;2023-12-28T01:05:57;98516.41;;;10.43;100.00
23867;BME280;12114;53.404;-1.502;2023-12-28T01:08:45;98502.13;;;10.41;100.00
23867;BME280;12114;53.404;-1.502;2023-12-28T01:11:29;98489.88;;;10.35;100.00
23867;BME280;12114;53.404;-1.502;2023-12-28T01:14:13;98501.75;;;10.39;100.00
23867;BME280;12114;53.404;-1.502;2023-12-28T01:16:57;98495.88;;;10.23;100.00
23867;BME280;12114;53.404;-1.502;2023-12-28T01:19:41;98501.81;;;10.25;100.00
23867;BME280;12114;53.404;-1.502;2023-12-28T01:22:25;98502.63;;;10.25;100.00
23867;BME280;12114;53.404;-1.502;2023-12-28T01:25:09;98496.69;;;10.27;100.00
23867;BME280;12114;53.404;-1.502;2023-12-28T01:27:53;98508.59;;;10.20;100.00
23867;BME280;12114;53.404;-1.502;2023-12-28T01:30:37;98518.09;;;10.16;100.00
23867;BME280;12114;53.404;-1.502;2023-12-28T01:33:22;98499.91;;;10.15;100.00
23867;BME280;12114;53.404;-1.502;2023-12-28T01:36:19;98506.22;;;10.15;100.00
23867;BME280;12114;53.404;-1.502;2023-12-28T01:39:03;98521.28;;;10.11;100.00
23867;BME280;12114;53.404;-1.502;2023-12-28T01:41:47;98510.19;;;10.11;100.00
23867;BME280;12114;53.404;-1.502;2023-12-28T01:44:31;98512.97;;;10.18;100.00
23867;BME280;12114;53.404;-1.502;2023-12-28T01:47:15;98496.72;;;10.16;100.00
23867;BME280;12114;53.404;-1.502;2023-12-28T01:49:59;98485.22;;;10.18;100.00
23867;BME280;12114;53.404;-1.502;2023-12-28T01:52:44;98499.03;;;10.28;100.00
23867;BME280;12114;53.404;-1.502;2023-12-28T01:55:29;98525.59;;;10.33;100.00
23867;BME280;12114;53.404;-1.502;2023-12-28T01:58:14;98516.09;;;10.27;100.00
23867;BME280;12114;53.404;-1.502;2023-12-28T02:00:58;98519.31;;;10.11;100.00
23867;BME280;12114;53.404;-1.502;2023-12-28T02:03:43;98528.13;;;9.81;100.00
23867;BME280;12114;53.404;-1.502;2023-12-28T02:06:28;98550.72;;;9.66;100.00
23867;BME280;12114;53.404;-1.502;2023-12-28T02:09:12;98559.84;;;9.56;100.00
23867;BME280;12114;53.404;-1.502;2023-12-28T02:11:55;98568.97;;;9.56;100.00
23867;BME280;12114;53.404;-1.502;2023-12-28T02:14:39;98588.38;;;9.63;100.00
23867;BME280;12114;53.404;-1.502;2023-12-28T02:17:33;98592.31;;;9.66;100.00
23867;BME280;12114;53.404;-1.502;2023-12-28T02:20:20;98596.66;;;9.70;100.00
23867;BME280;12114;53.404;-1.502;2023-12-28T02:23:04;98614.13;;;9.60;100.00
23867;BME280;12114;53.404;-1.502;2023-12-28T02:25:49;98617.66;;;9.50;100.00
23867;BME280;12114;53.404;-1.502;2023-12-28T02:28:33;98603.00;;;9.46;100.00
23867;BME280;12114;53.404;-1.502;2023-12-28T02:31:32;98599.44;;;9.49;100.00
23867;BME280;12114;53.404;-1.502;2023-12-28T02:34:28;98578.84;;;9.61;100.00
23867;BME280;12114;53.404;-1.502;2023-12-28T02:37:16;98590.72;;;9.65;100.00
23867;BME280;12114;53.404;-1.502;2023-12-28T02:40:01;98572.91;;;9.69;100.00
23867;BME280;12114;53.404;-1.502;2023-12-28T02:42:46;98582.38;;;9.89;100.00
23867;BME280;12114;53.404;-1.502;2023-12-28T02:45:30;98587.53;;;9.87;100.00
23867;BME280;12114;53.404;-1.502;2023-12-28T02:48:15;98575.59;;;10.01;100.00
23867;BME280;12114;53.404;-1.502;2023-12-28T02:50:58;98587.91;;;9.97;100.00
23867;BME280;12114;53.404;-1.502;2023-12-28T02:53:42;98580.34;;;10.08;100.00
23867;BME280;12114;53.404;-1.502;2023-12-28T02:56:26;98587.09;;;10.17;100.00
23867;BME280;12114;53.404;-1.502;2023-12-28T02:59:11;98595.78;;;10.23;100.00
23867;BME280;12114;53.404;-1.502;2023-12-28T03:01:55;98614.78;;;10.28;100.00
23867;BME280;12114;53.404;-1.502;2023-12-28T03:04:39;98624.28;;;10.45;100.00
23867;BME280;12114;53.404;-1.502;2023-12-28T03:07:26;98615.53;;;10.50;100.00
23867;BME280;12114;53.404;-1.502;2023-12-28T03:10:10;98631.78;;;10.51;100.00
23867;BME280;12114;53.404;-1.502;2023-12-28T03:12:57;98636.50;;;10.61;100.00
23867;BME280;12114;53.404;-1.502;2023-12-28T03:15:41;98623.00;;;10.67;100.00
23867;BME280;12114;53.404;-1.502;2023-12-28T03:18:26;98637.25;;;10.72;100.00
23867;BME280;12114;53.404;-1.502;2023-12-28T03:21:10;98632.50;;;10.69;100.00
23867;BME280;12114;53.404;-1.502;2023-12-28T03:23:54;98639.59;;;10.77;100.00
23867;BME280;12114;53.404;-1.502;2023-12-28T03:26:38;98632.81;;;10.85;100.00
23867;BME280;12114;53.404;-1.502;2023-12-28T03:29:23;98640.38;;;10.85;100.00
23867;BME280;12114;53.404;-1.502;2023-12-28T03:32:10;98657.41;;;10.94;100.00
23867;BME280;12114;53.404;-1.502;2023-12-28T03:34:54;98674.47;;;10.85;100.00
23867;BME280;12114;53.404;-1.502;2023-12-28T03:37:38;98688.34;;;10.89;100.00
23867;BME280;12114;53.404;-1.502;2023-12-28T03:40:22;98683.22;;;10.84;100.00
23867;BME280;12114;53.404;-1.502;2023-12-28T03:43:07;98698.28;;;10.86;100.00
23867;BME280;12114;53.404;-1.502;2023-12-28T03:45:51;98695.09;;;10.95;100.00
23867;BME280;12114;53.404;-1.502;2023-12-28T03:48:36;98695.88;;;10.95;100.00
23867;BME280;12114;53.404;-1.502;2023-12-28T03:51:20;98721.34;;;10.76;100.00
23867;BME280;12114;53.404;-1.502;2023-12-28T03:54:04;98731.31;;;10.63;100.00
23867;BME280;12114;53.404;-1.502;2023-12-28T03:56:48;98749.19;;;10.41;100.00
23867;BME280;12114;53.404;-1.502;2023-12-28T03:59:32;98746.84;;;10.22;100.00
23867;BME280;12114;53.404;-1.502;2023-12-28T04:02:16;98778.56;;;10.17;100.00
23867;BME280;12114;53.404;-1.502;2023-12-28T04:05:00;98785.63;;;9.97;100.00
23867;BME280;12114;53.404;-1.502;2023-12-28T04:07:44;98800.25;;;9.73;100.00
23867;BME280;12114;53.404;-1.502;2023-12-28T04:10:30;98804.66;;;9.92;100.00
23867;BME280;12114;53.404;-1.502;2023-12-28T04:13:17;98816.94;;;9.80;100.00
23867;BME280;12114;53.404;-1.502;2023-12-28T04:16:01;98811.38;;;9.80;100.00
23867;BME280;12114;53.404;-1.502;2023-12-28T04:18:45;98799.09;;;9.81;100.00
23867;BME280;12114;53.404;-1.502;2023-12-28T04:21:29;98804.28;;;9.89;100.00
23867;BME280;12114;53.404;-1.502;2023-12-28T04:24:13;98808.63;;;9.94;100.00
23867;BME280;12114;53.404;-1.502;2023-12-28T04:26:57;98811.81;;;10.07;100.00
23867;BME280;12114;53.404;-1.502;2023-12-28T04:29:41;98814.59;;;10.07;100.00
23867;BME280;12114;53.404;-1.502;2023-12-28T04:32:25;98818.19;;;10.21;100.00
23867;BME280;12114;53.404;-1.502;2023-12-28T04:35:09;98830.50;;;10.20;100.00
23867;BME280;12114;53.404;-1.502;2023-12-28T04:37:53;98827.34;;;10.36;100.00
23867;BME280;12114;53.404;-1.502;2023-12-28T04:40:38;98826.13;;;10.40;100.00
23867;BME280;12114;53.404;-1.502;2023-12-28T04:43:22;98823.75;;;10.46;100.00
23867;BME280;12114;53.404;-1.502;2023-12-28T04:46:07;98816.63;;;10.45;100.00
23867;BME280;12114;53.404;-1.502;2023-12-28T04:48:51;98827.75;;;10.45;100.00
23867;BME280;12114;53.404;-1.502;2023-12-28T04:51:35;98824.16;;;10.48;100.00
23867;BME280;12114;53.404;-1.502;2023-12-28T04:54:19;98834.47;;;10.37;100.00
23867;BME280;12114;53.404;-1.502;2023-12-28T04:57:03;98833.28;;;10.17;100.00
23867;BME280;12114;53.404;-1.502;2023-12-28T04:59:47;98833.66;;;10.22;100.00
23867;BME280;12114;53.404;-1.502;2023-12-28T05:02:31;98834.06;;;10.21;100.00
23867;BME280;12114;53.404;-1.502;2023-12-28T05:05:18;98837.63;;;10.25;100.00
23867;BME280;12114;53.404;-1.502;2023-12-28T05:08:03;98855.06;;;10.18;100.00
23867;BME280;12114;53.404;-1.502;2023-12-28T05:10:51;98855.88;;;10.26;100.00
23867;BME280;12114;53.404;-1.502;2023-12-28T05:13:35;98849.13;;;10.16;100.00
23867;BME280;12114;53.404;-1.502;2023-12-28T05:16:20;98868.56;;;10.34;100.00
23867;BME280;12114;53.404;-1.502;2023-12-28T05:19:04;98868.97;;;10.25;100.00
23867;BME280;12114;53.404;-1.502;2023-12-28T05:21:48;98867.75;;;10.19;100.00
23867;BME280;12114;53.404;-1.502;2023-12-28T05:24:32;98868.56;;;10.30;100.00
23867;BME280;12114;53.404;-1.502;2023-12-28T05:27:17;98874.91;;;10.20;100.00
23867;BME280;12114;53.404;-1.502;2023-12-28T05:30:01;98873.31;;;10.23;100.00
23867;BME280;12114;53.404;-1.502;2023-12-28T05:32:45;98869.38;;;10.24;100.00
23867;BME280;12114;53.404;-1.502;2023-12-28T05:35:29;98866.94;;;10.15;100.00
23867;BME280;12114;53.404;-1.502;2023-12-28T05:38:13;98863.78;;;10.17;100.00
23867;BME280;12114;53.404;-1.502;2023-12-28T05:40:57;98862.59;;;10.14;100.00
23867;BME280;12114;53.404;-1.502;2023-12-28T05:43:41;98872.47;;;10.05;100.00
23867;BME280;12114;53.404;-1.502;2023-12-28T05:46:25;98866.50;;;10.06;100.00
23867;BME280;12114;53.404;-1.502;2023-12-28T05:49:09;98867.38;;;10.17;100.00
23867;BME280;12114;53.404;-1.502;2023-12-28T05:51:52;98876.41;;;10.04;100.00
23867;BME280;12114;53.404;-1.502;2023-12-28T05:54:36;98872.06;;;9.99;100.00
23867;BME280;12114;53.404;-1.502;2023-12-28T05:57:20;98874.06;;;10.02;100.00
23867;BME280;12114;53.404;-1.502;2023-12-28T06:00:05;98881.19;;;10.10;100.00
23867;BME280;12114;53.404;-1.502;2023-12-28T06:02:50;98889.50;;;10.03;100.00
23867;BME280;12114;53.404;-1.502;2023-12-28T06:05:35;98897.00;;;9.92;100.00
23867;BME280;12114;53.404;-1.502;2023-12-28T06:08:19;98908.94;;;10.00;100.00
23867;BME280;12114;53.404;-1.502;2023-12-28T06:11:03;98905.72;;;9.98;100.00
23867;BME280;12114;53.404;-1.502;2023-12-28T06:13:47;98906.94;;;10.04;100.00
23867;BME280;12114;53.404;-1.502;2023-12-28T06:16:31;98910.97;;;10.20;100.00
23867;BME280;12114;53.404;-1.502;2023-12-28T06:19:25;98914.53;;;10.14;100.00
23867;BME280;12114;53.404;-1.502;2023-12-28T06:22:10;98923.25;;;10.19;100.00
23867;BME280;12114;53.404;-1.502;2023-12-28T06:24:55;98934.78;;;10.28;100.00
23867;BME280;12114;53.404;-1.502;2023-12-28T06:27:39;98928.44;;;10.28;100.00
23867;BME280;12114;53.404;-1.502;2023-12-28T06:30:23;98932.41;;;10.23;100.00
23867;BME280;12114;53.404;-1.502;2023-12-28T06:33:07;98938.34;;;10.25;100.00
23867;BME280;12114;53.404;-1.502;2023-12-28T06:35:51;98932.34;;;10.13;100.00
23867;BME280;12114;53.404;-1.502;2023-12-28T06:38:37;98945.81;;;10.11;100.00
23867;BME280;12114;53.404;-1.502;2023-12-28T06:41:21;98943.50;;;10.23;100.00
23867;BME280;12114;53.404;-1.502;2023-12-28T06:44:05;98953.81;;;10.23;100.00
23867;BME280;12114;53.404;-1.502;2023-12-28T06:46:49;98956.50;;;10.12;100.00
23867;BME280;12114;53.404;-1.502;2023-12-28T06:49:33;98957.72;;;10.11;100.00
23867;BME280;12114;53.404;-1.502;2023-12-28T06:52:16;98966.88;;;10.19;100.00
23867;BME280;12114;53.404;-1.502;2023-12-28T06:55:00;98969.28;;;10.24;100.00
23867;BME280;12114;53.404;-1.502;2023-12-28T06:57:47;98973.63;;;10.25;100.00
23867;BME280;12114;53.404;-1.502;2023-12-28T07:00:31;98964.06;;;10.15;100.00
23867;BME280;12114;53.404;-1.502;2023-12-28T07:03:15;98975.59;;;10.17;100.00
23867;BME280;12114;53.404;-1.502;2023-12-28T07:06:00;98979.59;;;10.27;100.00
23867;BME280;12114;53.404;-1.502;2023-12-28T07:08:44;98983.16;;;10.27;100.00
23867;BME280;12114;53.404;-1.502;2023-12-28T07:11:28;98978.78;;;10.19;100.00
23867;BME280;12114;53.404;-1.502;2023-12-28T07:14:12;98979.59;;;10.23;100.00
23867;BME280;12114;53.404;-1.502;2023-12-28T07:16:56;98980.75;;;10.19;100.00
23867;BME280;12114;53.404;-1.502;2023-12-28T07:19:40;98988.72;;;10.31;100.00
23867;BME280;12114;53.404;-1.502;2023-12-28T07:22:24;98980.38;;;10.24;100.00
23867;BME280;12114;53.404;-1.502;2023-12-28T07:25:08;98991.50;;;10.38;100.00
23867;BME280;12114;53.404;-1.502;2023-12-28T07:27:52;98978.81;;;10.37;100.00
23867;BME280;12114;53.404;-1.502;2023-12-28T07:30:36;98988.34;;;10.43;100.00
23867;BME280;12114;53.404;-1.502;2023-12-28T07:33:21;98995.47;;;10.40;100.00
23867;BME280;12114;53.404;-1.502;2023-12-28T07:36:05;99011.75;;;10.42;100.00
23867;BME280;12114;53.404;-1.502;2023-12-28T07:38:53;99021.31;;;10.52;100.00
23867;BME280;12114;53.404;-1.502;2023-12-28T07:41:36;99009.00;;;10.42;100.00
23867;BME280;12114;53.404;-1.502;2023-12-28T07:44:20;98998.59;;;10.18;100.00
23867;BME280;12114;53.404;-1.502;2023-12-28T07:47:04;99007.22;;;10.09;100.00
23867;BME280;12114;53.404;-1.502;2023-12-28T07:49:48;99008.75;;;9.89;100.00
23867;BME280;12114;53.404;-1.502;2023-12-28T07:52:32;99017.81;;;9.82;100.00
23867;BME280;12114;53.404;-1.502;2023-12-28T07:55:16;99039.22;;;9.78;100.00
23867;BME280;12114;53.404;-1.502;2023-12-28T07:58:00;99048.31;;;9.82;100.00
23867;BME280;12114;53.404;-1.502;2023-12-28T08:00:44;99066.50;;;9.73;100.00
23867;BME280;12114;53.404;-1.502;2023-12-28T08:03:31;99074.72;;;9.59;100.00
23867;BME280;12114;53.404;-1.502;2023-12-28T08:06:14;99073.78;;;9.41;100.00
23867;BME280;12114;53.404;-1.502;2023-12-28T08:08:59;99094.72;;;9.34;100.00
23867;BME280;12114;53.404;-1.502;2023-12-28T08:11:44;99091.03;;;9.20;100.00
23867;BME280;12114;53.404;-1.502;2023-12-28T08:14:28;99072.34;;;9.10;100.00
23867;BME280;12114;53.404;-1.502;2023-12-28T08:17:12;99089.75;;;9.10;100.00
23867;BME280;12114;53.404;-1.502;2023-12-28T08:19:56;99085.81;;;9.11;100.00
23867;BME280;12114;53.404;-1.502;2023-12-28T08:22:40;99082.97;;;9.04;100.00
23867;BME280;12114;53.404;-1.502;2023-12-28T08:25:24;99088.88;;;9.03;100.00
23867;BME280;12114;53.404;-1.502;2023-12-28T08:28:08;99090.88;;;9.02;100.00
23867;BME280;12114;53.404;-1.502;2023-12-28T08:30:52;99105.50;;;9.03;100.00
23867;BME280;12114;53.404;-1.502;2023-12-28T08:33:36;99091.59;;;8.96;100.00
23867;BME280;12114;53.404;-1.502;2023-12-28T08:36:23;99086.88;;;9.00;100.00
23867;BME280;12114;53.404;-1.502;2023-12-28T08:39:07;99092.69;;;8.88;100.00
23867;BME280;12114;53.404;-1.502;2023-12-28T08:41:51;99094.69;;;8.91;100.00
23867;BME280;12114;53.404;-1.502;2023-12-28T08:44:35;99091.28;;;9.04;100.00
23867;BME280;12114;53.404;-1.502;2023-12-28T08:47:20;99100.00;;;9.06;100.00
23867;BME280;12114;53.404;-1.502;2023-12-28T08:50:04;99099.69;;;9.11;100.00
23867;BME280;12114;53.404;-1.502;2023-12-28T08:52:49;99093.34;;;9.11;100.00
23867;BME280;12114;53.404;-1.502;2023-12-28T08:55:33;99102.78;;;9.06;100.00
23867;BME280;12114;53.404;-1.502;2023-12-28T08:58:17;99110.31;;;9.09;100.00
23867;BME280;12114;53.404;-1.502;2023-12-28T09:01:01;99111.13;;;9.10;100.00
23867;BME280;12114;53.404;-1.502;2023-12-28T09:03:48;99112.44;;;9.23;100.00
23867;BME280;12114;53.404;-1.502;2023-12-28T09:06:32;99114.06;;;9.24;100.00
23867;BME280;12114;53.404;-1.502;2023-12-28T09:09:16;99102.13;;;9.20;100.00
23867;BME280;12114;53.404;-1.502;2023-12-28T09:12:00;99106.94;;;9.26;100.00
23867;BME280;12114;53.404;-1.502;2023-12-28T09:14:44;99104.53;;;9.25;100.00
23867;BME280;12114;53.404;-1.502;2023-12-28T09:17:28;99103.81;;;9.31;100.00
23867;BME280;12114;53.404;-1.502;2023-12-28T09:20:12;99096.41;;;9.46;100.00
23867;BME280;12114;53.404;-1.502;2023-12-28T09:22:56;99108.38;;;9.54;100.00
23867;BME280;12114;53.404;-1.502;2023-12-28T09:25:40;99084.22;;;9.58;100.00
23867;BME280;12114;53.404;-1.502;2023-12-28T09:28:24;99082.66;;;9.64;100.00
23867;BME280;12114;53.404;-1.502;2023-12-28T09:31:08;99081.16;;;9.73;100.00
23867;BME280;12114;53.404;-1.502;2023-12-28T09:33:52;99080.81;;;9.78;100.00
23867;BME280;12114;53.404;-1.502;2023-12-28T09:36:36;99083.63;;;9.85;100.00
23867;BME280;12114;53.404;-1.502;2023-12-28T09:39:21;99071.28;;;9.79;100.00
23867;BME280;12114;53.404;-1.502;2023-12-28T09:42:09;99080.03;;;9.81;100.00
23867;BME280;12114;53.404;-1.502;2023-12-28T09:45:00;99074.13;;;9.90;100.00
23867;BME280;12114;53.404;-1.502;2023-12-28T09:47:45;99091.59;;;9.91;100.00
23867;BME280;12114;53.404;-1.502;2023-12-28T09:50:29;99085.25;;;9.94;100.00
23867;BME280;12114;53.404;-1.502;2023-12-28T09:53:13;99090.03;;;10.00;100.00
23867;BME280;12114;53.404;-1.502;2023-12-28T09:55:58;99081.09;;;10.21;100.00
23867;BME280;12114;53.404;-1.502;2023-12-28T09:58:44;99089.78;;;10.19;100.00
23867;BME280;12114;53.404;-1.502;2023-12-28T10:01:30;99094.97;;;10.28;100.00
23867;BME280;12114;53.404;-1.502;2023-12-28T10:04:16;99097.84;;;10.42;100.00
23867;BME280;12114;53.404;-1.502;2023-12-28T10:07:00;99089.84;;;10.37;100.00
23867;BME280;12114;53.404;-1.502;2023-12-28T10:09:44;99090.69;;;10.45;100.00
23867;BME280;12114;53.404;-1.502;2023-12-28T10:12:28;99102.63;;;10.52;100.00
23867;BME280;12114;53.404;-1.502;2023-12-28T10:15:12;99087.16;;;10.58;100.00
23867;BME280;12114;53.404;-1.502;2023-12-28T10:17:56;99068.50;;;10.55;100.00
23867;BME280;12114;53.404;-1.502;2023-12-28T10:20:40;99071.72;;;10.64;100.00
23867;BME280;12114;53.404;-1.502;2023-12-28T10:23:24;99062.59;;;10.64;100.00
23867;BME280;12114;53.404;-1.502;2023-12-28T10:26:09;99079.28;;;10.64;100.00
23867;BME280;12114;53.404;-1.502;2023-12-28T10:29:00;99079.28;;;10.78;100.00
23867;BME280;12114;53.404;-1.502;2023-12-28T10:31:47;99075.31;;;10.68;100.00
23867;BME280;12114;53.404;-1.502;2023-12-28T10:34:34;99079.63;;;10.55;100.00
23867;BME280;12114;53.404;-1.502;2023-12-28T10:37:21;99081.97;;;10.50;100.00
23867;BME280;12114;53.404;-1.502;2023-12-28T10:40:07;99066.91;;;10.47;100.00
23867;BME280;12114;53.404;-1.502;2023-12-28T10:42:58;99076.06;;;10.55;100.00
23867;BME280;12114;53.404;-1.502;2023-12-28T10:45:46;99060.97;;;10.52;100.00
23867;BME280;12114;53.404;-1.502;2023-12-28T10:48:38;99074.06;;;10.59;100.00
23867;BME280;12114;53.404;-1.502;2023-12-28T10:51:25;99063.38;;;10.54;100.00
23867;BME280;12114;53.404;-1.502;2023-12-28T10:54:35;99066.94;;;10.61;100.00
23867;BME280;12114;53.404;-1.502;2023-12-28T10:57:28;99076.44;;;10.53;100.00
23867;BME280;12114;53.404;-1.502;2023-12-28T11:00:20;99072.09;;;10.59;100.00
23867;BME280;12114;53.404;-1.502;2023-12-28T11:03:09;99052.66;;;10.59;100.00
23867;BME280;12114;53.404;-1.502;2023-12-28T11:05:55;99045.13;;;10.56;100.00
23867;BME280;12114;53.404;-1.502;2023-12-28T11:08:41;99043.94;;;10.61;100.00
23867;BME280;12114;53.404;-1.502;2023-12-28T11:11:29;99023.72;;;10.60;100.00
23867;BME280;12114;53.404;-1.502;2023-12-28T11:14:14;99014.94;;;10.48;100.00
23867;BME280;12114;53.404;-1.502;2023-12-28T11:17:00;99007.03;;;10.57;100.00
23867;BME280;12114;53.404;-1.502;2023-12-28T11:19:45;99006.63;;;10.62;100.00
23867;BME280;12114;53.404;-1.502;2023-12-28T11:22:31;98994.38;;;10.66;100.00
23867;BME280;12114;53.404;-1.502;2023-12-28T11:25:16;98990.78;;;10.62;100.00
23867;BME280;12114;53.404;-1.502;2023-12-28T11:28:09;98980.06;;;10.68;100.00
23867;BME280;12114;53.404;-1.502;2023-12-28T11:30:53;98976.50;;;10.57;100.00
23867;BME280;12114;53.404;-1.502;2023-12-28T11:33:47;98985.25;;;10.69;100.00
23867;BME280;12114;53.404;-1.502;2023-12-28T11:36:38;98976.09;;;10.51;100.00
23867;BME280;12114;53.404;-1.502;2023-12-28T11:39:35;98993.13;;;10.53;100.00
23867;BME280;12114;53.404;-1.502;2023-12-28T11:42:20;98982.38;;;10.34;100.00
23867;BME280;12114;53.404;-1.502;2023-12-28T11:45:06;99003.38;;;10.21;100.00
23867;BME280;12114;53.404;-1.502;2023-12-28T11:48:00;99008.09;;;10.17;100.00
23867;BME280;12114;53.404;-1.502;2023-12-28T11:50:45;99009.16;;;9.95;100.00
23867;BME280;12114;53.404;-1.502;2023-12-28T11:53:29;99016.28;;;9.92;100.00
23867;BME280;12114;53.404;-1.502;2023-12-28T11:56:18;99007.97;;;9.92;100.00
23867;BME280;12114;53.404;-1.502;2023-12-28T11:59:02;99005.56;;;9.87;100.00
23867;BME280;12114;53.404;-1.502;2023-12-28T12:01:53;99005.59;;;9.94;100.00
23867;BME280;12114;53.404;-1.502;2023-12-28T12:04:37;99013.03;;;9.79;100.00
23867;BME280;12114;53.404;-1.502;2023-12-28T12:07:21;99011.13;;;9.94;100.00
23867;BME280;12114;53.404;-1.502;2023-12-28T12:10:05;99009.59;;;9.97;100.00
23867;BME280;12114;53.404;-1.502;2023-12-28T12:12:52;98996.47;;;9.90;100.00
23867;BME280;12114;53.404;-1.502;2023-12-28T12:15:37;98994.88;;;9.89;100.00
23867;BME280;12114;53.404;-1.502;2023-12-28T12:18:21;98983.00;;;9.96;100.00
23867;BME280;12114;53.404;-1.502;2023-12-28T12:21:05;98973.88;;;9.95;100.00
23867;BME280;12114;53.404;-1.502;2023-12-28T12:23:50;98958.06;;;10.06;100.00
23867;BME280;12114;53.404;-1.502;2023-12-28T12:26:35;98952.94;;;10.08;100.00
23867;BME280;12114;53.404;-1.502;2023-12-28T12:29:19;98939.88;;;10.09;100.00
23867;BME280;12114;53.404;-1.502;2023-12-28T12:32:04;98946.28;;;10.27;100.00
23867;BME280;12114;53.404;-1.502;2023-12-28T12:34:49;98912.19;;;10.30;100.00
23867;BME280;12114;53.404;-1.502;2023-12-28T12:37:33;98882.06;;;10.35;100.00
23867;BME280;12114;53.404;-1.502;2023-12-28T12:40:18;98878.09;;;10.47;100.00
23867;BME280;12114;53.404;-1.502;2023-12-28T12:43:05;98849.53;;;10.57;100.00
23867;BME280;12114;53.404;-1.502;2023-12-28T12:45:53;98850.72;;;10.53;100.00
23867;BME280;12114;53.404;-1.502;2023-12-28T12:48:37;98855.09;;;10.54;100.00
23867;BME280;12114;53.404;-1.502;2023-12-28T12:51:28;98845.97;;;10.60;100.00
23867;BME280;12114;53.404;-1.502;2023-12-28T12:54:12;98834.06;;;10.49;100.00
23867;BME280;12114;53.404;-1.502;2023-12-28T12:56:56;98834.47;;;10.55;100.00
23867;BME280;12114;53.404;-1.502;2023-12-28T12:59:41;98824.56;;;10.50;100.00
23867;BME280;12114;53.404;-1.502;2023-12-28T13:02:25;98817.41;;;10.60;100.00
23867;BME280;12114;53.404;-1.502;2023-12-28T13:05:11;98803.50;;;10.70;100.00
23867;BME280;12114;53.404;-1.502;2023-12-28T13:07:55;98795.16;;;10.88;100.00
23867;BME280;12114;53.404;-1.502;2023-12-28T13:10:39;98802.28;;;10.89;100.00
23867;BME280;12114;53.404;-1.502;2023-12-28T13:13:23;98799.53;;;10.82;100.00
23867;BME280;12114;53.404;-1.502;2023-12-28T13:16:07;98801.47;;;10.88;100.00
23867;BME280;12114;53.404;-1.502;2023-12-28T13:18:51;98803.50;;;10.81;100.00
23867;BME280;12114;53.404;-1.502;2023-12-28T13:21:35;98787.22;;;10.79;100.00
23867;BME280;12114;53.404;-1.502;2023-12-28T13:24:19;98777.72;;;10.70;100.00
23867;BME280;12114;53.404;-1.502;2023-12-28T13:27:03;98780.50;;;10.66;100.00
23867;BME280;12114;53.404;-1.502;2023-12-28T13:29:48;98801.13;;;10.72;100.00
23867;BME280;12114;53.404;-1.502;2023-12-28T13:32:32;98809.84;;;10.74;100.00
23867;BME280;12114;53.404;-1.502;2023-12-28T13:35:16;98825.72;;;10.70;100.00
23867;BME280;12114;53.404;-1.502;2023-12-28T13:38:01;98836.81;;;10.70;100.00
23867;BME280;12114;53.404;-1.502;2023-12-28T13:40:45;98843.59;;;10.66;100.00
23867;BME280;12114;53.404;-1.502;2023-12-28T13:43:29;98863.03;;;10.41;100.00
23867;BME280;12114;53.404;-1.502;2023-12-28T13:46:13;98838.84;;;10.45;100.00
23867;BME280;12114;53.404;-1.502;2023-12-28T13:48:57;98862.63;;;10.28;100.00
23867;BME280;12114;53.404;-1.502;2023-12-28T13:51:41;98840.41;;;10.32;100.00
23867;BME280;12114;53.404;-1.502;2023-12-28T13:54:25;98855.09;;;10.36;100.00
23867;BME280;12114;53.404;-1.502;2023-12-28T13:57:09;98862.22;;;10.37;100.00
23867;BME280;12114;53.404;-1.502;2023-12-28T13:59:53;98859.06;;;10.42;100.00
23867;BME280;12114;53.404;-1.502;2023-12-28T14:02:37;98854.31;;;10.39;100.00
23867;BME280;12114;53.404;-1.502;2023-12-28T14:05:21;98872.53;;;10.33;100.00
23867;BME280;12114;53.404;-1.502;2023-12-28T14:08:07;98876.53;;;10.39;100.00
23867;BME280;12114;53.404;-1.502;2023-12-28T14:10:54;98868.16;;;10.32;100.00
23867;BME280;12114;53.404;-1.502;2023-12-28T14:13:38;98878.09;;;10.33;100.00